sensor_id;sensor_type;location;lat;lon;timestamp;P1;durP1;ratioP1;P2;durP2;ratioP2
51332;SDS011;37417;48.118;11.734;2023-07-29T00:01:47;2.60;;;1.48;;
51332;SDS011;37417;48.118;11.734;2023-07-29T00:04:34;2.35;;;1.45;;
51332;SDS011;37417;48.118;11.734;2023-07-29T00:07:20;2.60;;;1.65;;
51332;SDS011;37417;48.118;11.734;2023-07-29T00:10:06;1.40;;;1.27;;
51332;SDS011;37417;48.118;11.734;2023-07-29T00:12:52;1.98;;;1.33;;
51332;SDS011;37417;48.118;11.734;2023-07-29T00:15:38;1.75;;;1.30;;
51332;SDS011;37417;48.118;11.734;2023-07-29T00:18:23;3.13;;;1.52;;
51332;SDS011;37417;48.118;11.734;2023-07-29T00:21:09;2.25;;;1.60;;
51332;SDS011;37417;48.118;11.734;2023-07-29T00:23:55;1.63;;;1.23;;
51332;SDS011;37417;48.118;11.734;2023-07-29T00:26:42;3.38;;;1.80;;
51332;SDS011;37417;48.118;11.734;2023-07-29T00:29:28;4.93;;;1.73;;
51332;SDS011;37417;48.118;11.734;2023-07-29T00:32:14;3.88;;;1.70;;
51332;SDS011;37417;48.118;11.734;2023-07-29T00:34:59;2.25;;;1.83;;
51332;SDS011;37417;48.118;11.734;2023-07-29T00:37:46;2.50;;;1.50;;
51332;SDS011;37417;48.118;11.734;2023-07-29T00:40:31;2.10;;;1.42;;
51332;SDS011;37417;48.118;11.734;2023-07-29T00:43:20;2.45;;;1.52;;
51332;SDS011;37417;48.118;11.734;2023-07-29T00:46:06;6.75;;;1.90;;
51332;SDS011;37417;48.118;11.734;2023-07-29T00:48:55;2.22;;;1.77;;
51332;SDS011;37417;48.118;11.734;2023-07-29T00:51:41;2.28;;;1.55;;
51332;SDS011;37417;48.118;11.734;2023-07-29T00:54:27;12.25;;;1.95;;
51332;SDS011;37417;48.118;11.734;2023-07-29T00:57:12;2.00;;;1.38;;
51332;SDS011;37417;48.118;11.734;2023-07-29T01:00:01;1.45;;;1.35;;
51332;SDS011;37417;48.118;11.734;2023-07-29T01:02:47;1.98;;;1.58;;
51332;SDS011;37417;48.118;11.734;2023-07-29T01:05:36;2.28;;;1.48;;
51332;SDS011;37417;48.118;11.734;2023-07-29T01:08:37;1.08;;;0.98;;
51332;SDS011;37417;48.118;11.734;2023-07-29T01:17:23;1.20;;;1.10;;
51332;SDS011;37417;48.118;11.734;2023-07-29T01:23:01;3.17;;;1.17;;
51332;SDS011;37417;48.118;11.734;2023-07-29T01:25:46;2.03;;;1.23;;
51332;SDS011;37417;48.118;11.734;2023-07-29T01:28:32;3.55;;;1.67;;
51332;SDS011;37417;48.118;11.734;2023-07-29T01:31:23;6.43;;;1.50;;
51332;SDS011;37417;48.118;11.734;2023-07-29T01:34:18;3.60;;;1.58;;
51332;SDS011;37417;48.118;11.734;2023-07-29T01:37:12;2.60;;;1.48;;
51332;SDS011;37417;48.118;11.734;2023-07-29T01:40:02;1.67;;;1.55;;
51332;SDS011;37417;48.118;11.734;2023-07-29T01:42:49;1.92;;;1.40;;
51332;SDS011;37417;48.118;11.734;2023-07-29T01:45:36;4.13;;;1.52;;
51332;SDS011;37417;48.118;11.734;2023-07-29T01:48:23;2.28;;;1.45;;
51332;SDS011;37417;48.118;11.734;2023-07-29T01:51:11;6.15;;;1.67;;
51332;SDS011;37417;48.118;11.734;2023-07-29T01:53:57;2.60;;;1.60;;
51332;SDS011;37417;48.118;11.734;2023-07-29T01:56:45;1.92;;;1.63;;
51332;SDS011;37417;48.118;11.734;2023-07-29T01:59:30;2.97;;;1.70;;
51332;SDS011;37417;48.118;11.734;2023-07-29T02:02:16;1.75;;;1.50;;
51332;SDS011;37417;48.118;11.734;2023-07-29T02:05:02;2.65;;;1.80;;
51332;SDS011;37417;48.118;11.734;2023-07-29T02:07:48;2.42;;;1.77;;
51332;SDS011;37417;48.118;11.734;2023-07-29T02:10:33;2.50;;;1.50;;
51332;SDS011;37417;48.118;11.734;2023-07-29T02:13:19;2.05;;;1.73;;
51332;SDS011;37417;48.118;11.734;2023-07-29T02:16:04;1.80;;;1.23;;
51332;SDS011;37417;48.118;11.734;2023-07-29T02:18:50;1.88;;;1.48;;
51332;SDS011;37417;48.118;11.734;2023-07-29T02:21:36;2.17;;;1.45;;
51332;SDS011;37417;48.118;11.734;2023-07-29T02:24:21;2.45;;;1.73;;
51332;SDS011;37417;48.118;11.734;2023-07-29T02:27:07;3.47;;;1.40;;
51332;SDS011;37417;48.118;11.734;2023-07-29T02:29:53;1.70;;;1.60;;
51332;SDS011;37417;48.118;11.734;2023-07-29T02:32:39;1.63;;;1.38;;
51332;SDS011;37417;48.118;11.734;2023-07-29T02:35:25;2.22;;;1.83;;
51332;SDS011;37417;48.118;11.734;2023-07-29T02:38:10;2.13;;;1.73;;
51332;SDS011;37417;48.118;11.734;2023-07-29T02:40:56;2.53;;;1.50;;
51332;SDS011;37417;48.118;11.734;2023-07-29T02:43:42;1.70;;;1.27;;
51332;SDS011;37417;48.118;11.734;2023-07-29T02:46:28;3.50;;;1.38;;
51332;SDS011;37417;48.118;11.734;2023-07-29T02:49:14;2.00;;;1.27;;
51332;SDS011;37417;48.118;11.734;2023-07-29T02:52:00;2.00;;;1.50;;
51332;SDS011;37417;48.118;11.734;2023-07-29T02:54:45;2.03;;;1.42;;
51332;SDS011;37417;48.118;11.734;2023-07-29T02:57:31;6.05;;;1.30;;
51332;SDS011;37417;48.118;11.734;2023-07-29T03:00:17;2.63;;;1.77;;
51332;SDS011;37417;48.118;11.734;2023-07-29T03:03:02;2.70;;;1.88;;
51332;SDS011;37417;48.118;11.734;2023-07-29T03:05:48;4.25;;;1.65;;
51332;SDS011;37417;48.118;11.734;2023-07-29T03:08:34;1.48;;;1.20;;
51332;SDS011;37417;48.118;11.734;2023-07-29T03:11:20;3.05;;;1.50;;
51332;SDS011;37417;48.118;11.734;2023-07-29T03:14:06;3.33;;;1.02;;
51332;SDS011;37417;48.118;11.734;2023-07-29T03:16:52;3.72;;;1.52;;
51332;SDS011;37417;48.118;11.734;2023-07-29T03:19:37;1.67;;;1.08;;
51332;SDS011;37417;48.118;11.734;2023-07-29T03:22:23;2.13;;;1.33;;
51332;SDS011;37417;48.118;11.734;2023-07-29T03:25:09;1.40;;;1.25;;
51332;SDS011;37417;48.118;11.734;2023-07-29T03:27:54;1.70;;;1.27;;
51332;SDS011;37417;48.118;11.734;2023-07-29T03:30:40;2.72;;;1.60;;
51332;SDS011;37417;48.118;11.734;2023-07-29T03:33:26;1.73;;;1.40;;
51332;SDS011;37417;48.118;11.734;2023-07-29T03:36:11;1.40;;;1.10;;
51332;SDS011;37417;48.118;11.734;2023-07-29T03:38:57;2.25;;;1.13;;
51332;SDS011;37417;48.118;11.734;2023-07-29T03:41:43;2.17;;;1.23;;
51332;SDS011;37417;48.118;11.734;2023-07-29T03:44:29;1.10;;;1.00;;
51332;SDS011;37417;48.118;11.734;2023-07-29T03:47:16;2.83;;;1.85;;
51332;SDS011;37417;48.118;11.734;2023-07-29T03:50:02;1.23;;;1.00;;
51332;SDS011;37417;48.118;11.734;2023-07-29T03:52:48;2.97;;;1.55;;
51332;SDS011;37417;48.118;11.734;2023-07-29T03:55:33;0.98;;;0.88;;
51332;SDS011;37417;48.118;11.734;2023-07-29T03:58:19;4.13;;;1.13;;
51332;SDS011;37417;48.118;11.734;2023-07-29T04:01:05;1.10;;;1.02;;
51332;SDS011;37417;48.118;11.734;2023-07-29T04:03:50;3.83;;;1.35;;
51332;SDS011;37417;48.118;11.734;2023-07-29T04:06:37;3.13;;;1.05;;
51332;SDS011;37417;48.118;11.734;2023-07-29T04:09:23;1.85;;;1.00;;
51332;SDS011;37417;48.118;11.734;2023-07-29T04:12:08;3.58;;;1.10;;
51332;SDS011;37417;48.118;11.734;2023-07-29T04:14:55;1.90;;;1.15;;
51332;SDS011;37417;48.118;11.734;2023-07-29T04:17:40;3.95;;;1.20;;
51332;SDS011;37417;48.118;11.734;2023-07-29T04:20:26;1.83;;;1.15;;
51332;SDS011;37417;48.118;11.734;2023-07-29T04:23:12;1.60;;;1.15;;
51332;SDS011;37417;48.118;11.734;2023-07-29T04:25:57;2.00;;;1.30;;
51332;SDS011;37417;48.118;11.734;2023-07-29T04:28:43;1.80;;;1.30;;
51332;SDS011;37417;48.118;11.734;2023-07-29T04:31:29;3.47;;;1.13;;
51332;SDS011;37417;48.118;11.734;2023-07-29T04:34:15;1.63;;;1.20;;
51332;SDS011;37417;48.118;11.734;2023-07-29T04:37:00;1.75;;;0.88;;
51332;SDS011;37417;48.118;11.734;2023-07-29T04:39:46;1.17;;;1.08;;
51332;SDS011;37417;48.118;11.734;2023-07-29T04:42:32;3.17;;;1.55;;
51332;SDS011;37417;48.118;11.734;2023-07-29T04:45:17;1.90;;;1.00;;
51332;SDS011;37417;48.118;11.734;2023-07-29T04:48:03;1.95;;;1.08;;
51332;SDS011;37417;48.118;11.734;2023-07-29T04:50:49;1.85;;;1.30;;
51332;SDS011;37417;48.118;11.734;2023-07-29T04:53:34;1.23;;;1.05;;
51332;SDS011;37417;48.118;11.734;2023-07-29T04:56:21;3.72;;;1.50;;
51332;SDS011;37417;48.118;11.734;2023-07-29T04:59:07;2.22;;;1.27;;
51332;SDS011;37417;48.118;11.734;2023-07-29T05:01:53;5.18;;;1.42;;
51332;SDS011;37417;48.118;11.734;2023-07-29T05:04:39;1.23;;;0.82;;
51332;SDS011;37417;48.118;11.734;2023-07-29T05:07:25;1.83;;;1.02;;
51332;SDS011;37417;48.118;11.734;2023-07-29T05:10:10;1.80;;;1.27;;
51332;SDS011;37417;48.118;11.734;2023-07-29T05:12:56;1.52;;;1.00;;
51332;SDS011;37417;48.118;11.734;2023-07-29T05:15:42;0.88;;;0.77;;
51332;SDS011;37417;48.118;11.734;2023-07-29T05:18:28;0.95;;;0.68;;
51332;SDS011;37417;48.118;11.734;2023-07-29T05:21:13;1.33;;;0.95;;
51332;SDS011;37417;48.118;11.734;2023-07-29T05:23:59;1.83;;;1.10;;
51332;SDS011;37417;48.118;11.734;2023-07-29T05:26:45;3.17;;;1.25;;
51332;SDS011;37417;48.118;11.734;2023-07-29T05:29:31;1.15;;;0.75;;
51332;SDS011;37417;48.118;11.734;2023-07-29T05:32:16;3.50;;;1.00;;
51332;SDS011;37417;48.118;11.734;2023-07-29T05:35:02;1.58;;;1.02;;
51332;SDS011;37417;48.118;11.734;2023-07-29T05:37:48;0.82;;;0.70;;
51332;SDS011;37417;48.118;11.734;2023-07-29T05:40:33;1.00;;;0.63;;
51332;SDS011;37417;48.118;11.734;2023-07-29T05:43:19;1.50;;;0.90;;
51332;SDS011;37417;48.118;11.734;2023-07-29T05:46:05;4.88;;;0.98;;
51332;SDS011;37417;48.118;11.734;2023-07-29T05:48:50;1.27;;;1.00;;
51332;SDS011;37417;48.118;11.734;2023-07-29T05:51:36;1.40;;;0.80;;
51332;SDS011;37417;48.118;11.734;2023-07-29T05:54:22;0.98;;;0.80;;
51332;SDS011;37417;48.118;11.734;2023-07-29T05:57:11;0.90;;;0.70;;
51332;SDS011;37417;48.118;11.734;2023-07-29T05:59:57;0.90;;;0.70;;
51332;SDS011;37417;48.118;11.734;2023-07-29T06:02:43;3.50;;;0.85;;
51332;SDS011;37417;48.118;11.734;2023-07-29T06:05:29;1.85;;;1.13;;
51332;SDS011;37417;48.118;11.734;2023-07-29T06:08:15;0.80;;;0.70;;
51332;SDS011;37417;48.118;11.734;2023-07-29T06:11:01;2.63;;;0.60;;
51332;SDS011;37417;48.118;11.734;2023-07-29T06:13:47;1.80;;;0.80;;
51332;SDS011;37417;48.118;11.734;2023-07-29T06:16:33;0.95;;;0.63;;
51332;SDS011;37417;48.118;11.734;2023-07-29T06:19:20;2.33;;;0.95;;
51332;SDS011;37417;48.118;11.734;2023-07-29T06:22:06;7.15;;;1.20;;
51332;SDS011;37417;48.118;11.734;2023-07-29T06:24:52;2.25;;;0.93;;
51332;SDS011;37417;48.118;11.734;2023-07-29T06:27:38;0.50;;;0.50;;
51332;SDS011;37417;48.118;11.734;2023-07-29T06:30:23;1.27;;;0.95;;
51332;SDS011;37417;48.118;11.734;2023-07-29T06:33:09;0.85;;;0.85;;
51332;SDS011;37417;48.118;11.734;2023-07-29T06:35:55;2.17;;;1.13;;
51332;SDS011;37417;48.118;11.734;2023-07-29T06:38:41;1.88;;;1.10;;
51332;SDS011;37417;48.118;11.734;2023-07-29T06:41:27;1.90;;;1.05;;
51332;SDS011;37417;48.118;11.734;2023-07-29T06:44:13;2.45;;;1.25;;
51332;SDS011;37417;48.118;11.734;2023-07-29T06:46:58;4.40;;;1.27;;
51332;SDS011;37417;48.118;11.734;2023-07-29T06:49:45;1.48;;;1.05;;
51332;SDS011;37417;48.118;11.734;2023-07-29T06:52:31;1.98;;;1.35;;
51332;SDS011;37417;48.118;11.734;2023-07-29T06:55:17;1.17;;;0.77;;
51332;SDS011;37417;48.118;11.734;2023-07-29T06:58:03;2.17;;;1.20;;
51332;SDS011;37417;48.118;11.734;2023-07-29T07:00:49;4.82;;;1.05;;
51332;SDS011;37417;48.118;11.734;2023-07-29T07:03:35;1.35;;;1.08;;
51332;SDS011;37417;48.118;11.734;2023-07-29T07:06:21;1.42;;;1.30;;
51332;SDS011;37417;48.118;11.734;2023-07-29T07:09:12;1.25;;;0.88;;
51332;SDS011;37417;48.118;11.734;2023-07-29T07:11:58;1.10;;;1.00;;
51332;SDS011;37417;48.118;11.734;2023-07-29T07:14:44;2.20;;;1.27;;
51332;SDS011;37417;48.118;11.734;2023-07-29T07:17:30;2.15;;;0.98;;
51332;SDS011;37417;48.118;11.734;2023-07-29T07:20:18;4.57;;;0.80;;
51332;SDS011;37417;48.118;11.734;2023-07-29T07:23:04;4.22;;;1.20;;
51332;SDS011;37417;48.118;11.734;2023-07-29T07:25:56;5.40;;;1.15;;
51332;SDS011;37417;48.118;11.734;2023-07-29T07:28:42;1.70;;;1.15;;
51332;SDS011;37417;48.118;11.734;2023-07-29T07:31:32;2.63;;;1.25;;
51332;SDS011;37417;48.118;11.734;2023-07-29T07:34:20;2.33;;;1.17;;
51332;SDS011;37417;48.118;11.734;2023-07-29T07:37:06;1.40;;;1.17;;
51332;SDS011;37417;48.118;11.734;2023-07-29T07:39:52;1.92;;;1.08;;
51332;SDS011;37417;48.118;11.734;2023-07-29T07:42:38;2.08;;;1.15;;
51332;SDS011;37417;48.118;11.734;2023-07-29T07:45:25;1.63;;;1.10;;
51332;SDS011;37417;48.118;11.734;2023-07-29T07:48:11;2.22;;;1.25;;
51332;SDS011;37417;48.118;11.734;2023-07-29T07:51:04;1.77;;;1.20;;
51332;SDS011;37417;48.118;11.734;2023-07-29T07:53:55;2.80;;;1.42;;
51332;SDS011;37417;48.118;11.734;2023-07-29T07:56:42;2.92;;;1.35;;
51332;SDS011;37417;48.118;11.734;2023-07-29T07:59:28;1.65;;;1.10;;
51332;SDS011;37417;48.118;11.734;2023-07-29T08:02:14;2.72;;;1.60;;
51332;SDS011;37417;48.118;11.734;2023-07-29T08:05:00;4.00;;;1.38;;
51332;SDS011;37417;48.118;11.734;2023-07-29T08:07:46;2.25;;;1.55;;
51332;SDS011;37417;48.118;11.734;2023-07-29T08:10:32;2.42;;;1.45;;
51332;SDS011;37417;48.118;11.734;2023-07-29T08:13:18;2.42;;;1.60;;
51332;SDS011;37417;48.118;11.734;2023-07-29T08:16:04;3.03;;;1.80;;
51332;SDS011;37417;48.118;11.734;2023-07-29T08:18:50;1.73;;;1.40;;
51332;SDS011;37417;48.118;11.734;2023-07-29T08:21:39;2.70;;;1.80;;
51332;SDS011;37417;48.118;11.734;2023-07-29T08:24:24;3.20;;;1.90;;
51332;SDS011;37417;48.118;11.734;2023-07-29T08:27:10;3.28;;;1.65;;
51332;SDS011;37417;48.118;11.734;2023-07-29T08:29:56;2.13;;;1.40;;
51332;SDS011;37417;48.118;11.734;2023-07-29T08:32:42;1.67;;;1.27;;
51332;SDS011;37417;48.118;11.734;2023-07-29T08:35:30;6.35;;;1.38;;
51332;SDS011;37417;48.118;11.734;2023-07-29T08:38:16;2.03;;;1.33;;
51332;SDS011;37417;48.118;11.734;2023-07-29T08:44:27;1.73;;;1.42;;
51332;SDS011;37417;48.118;11.734;2023-07-29T08:47:19;4.55;;;1.85;;
51332;SDS011;37417;48.118;11.734;2023-07-29T08:50:05;1.80;;;1.52;;
51332;SDS011;37417;48.118;11.734;2023-07-29T08:52:52;4.65;;;1.25;;
51332;SDS011;37417;48.118;11.734;2023-07-29T08:55:38;2.72;;;1.63;;
51332;SDS011;37417;48.118;11.734;2023-07-29T08:58:27;3.00;;;1.58;;
51332;SDS011;37417;48.118;11.734;2023-07-29T09:01:13;2.50;;;1.58;;
51332;SDS011;37417;48.118;11.734;2023-07-29T09:04:00;1.63;;;1.20;;
51332;SDS011;37417;48.118;11.734;2023-07-29T09:06:47;2.08;;;1.42;;
51332;SDS011;37417;48.118;11.734;2023-07-29T09:09:35;3.28;;;1.20;;
51332;SDS011;37417;48.118;11.734;2023-07-29T09:12:23;2.45;;;1.30;;
51332;SDS011;37417;48.118;11.734;2023-07-29T09:15:10;4.57;;;1.48;;
51332;SDS011;37417;48.118;11.734;2023-07-29T09:17:57;1.90;;;1.08;;
51332;SDS011;37417;48.118;11.734;2023-07-29T09:20:51;1.70;;;1.17;;
51332;SDS011;37417;48.118;11.734;2023-07-29T09:23:39;2.03;;;1.17;;
51332;SDS011;37417;48.118;11.734;2023-07-29T09:26:49;2.13;;;1.25;;
51332;SDS011;37417;48.118;11.734;2023-07-29T09:29:36;1.83;;;1.40;;
51332;SDS011;37417;48.118;11.734;2023-07-29T09:32:24;2.40;;;1.10;;
51332;SDS011;37417;48.118;11.734;2023-07-29T09:35:13;1.17;;;0.98;;
51332;SDS011;37417;48.118;11.734;2023-07-29T09:38:00;1.52;;;1.30;;
51332;SDS011;37417;48.118;11.734;2023-07-29T09:40:47;1.77;;;1.40;;
51332;SDS011;37417;48.118;11.734;2023-07-29T09:43:34;2.75;;;1.30;;
51332;SDS011;37417;48.118;11.734;2023-07-29T09:46:22;1.20;;;1.08;;
51332;SDS011;37417;48.118;11.734;2023-07-29T09:49:10;1.08;;;0.90;;
51332;SDS011;37417;48.118;11.734;2023-07-29T09:51:56;0.98;;;0.82;;
51332;SDS011;37417;48.118;11.734;2023-07-29T09:54:43;2.70;;;1.50;;
51332;SDS011;37417;48.118;11.734;2023-07-29T09:57:29;1.85;;;1.73;;
51332;SDS011;37417;48.118;11.734;2023-07-29T10:00:15;1.60;;;1.23;;
51332;SDS011;37417;48.118;11.734;2023-07-29T10:03:01;3.10;;;1.40;;
51332;SDS011;37417;48.118;11.734;2023-07-29T10:05:47;1.75;;;1.10;;
51332;SDS011;37417;48.118;11.734;2023-07-29T10:08:33;1.50;;;1.25;;
51332;SDS011;37417;48.118;11.734;2023-07-29T10:11:25;1.73;;;1.15;;
51332;SDS011;37417;48.118;11.734;2023-07-29T10:14:11;1.83;;;1.45;;
51332;SDS011;37417;48.118;11.734;2023-07-29T10:16:57;1.50;;;1.33;;
51332;SDS011;37417;48.118;11.734;2023-07-29T10:19:45;2.15;;;1.50;;
51332;SDS011;37417;48.118;11.734;2023-07-29T10:22:42;1.80;;;1.50;;
51332;SDS011;37417;48.118;11.734;2023-07-29T10:25:35;5.63;;;1.17;;
51332;SDS011;37417;48.118;11.734;2023-07-29T10:28:25;2.15;;;1.33;;
51332;SDS011;37417;48.118;11.734;2023-07-29T10:31:13;1.27;;;1.10;;
51332;SDS011;37417;48.118;11.734;2023-07-29T10:34:01;1.65;;;1.20;;
51332;SDS011;37417;48.118;11.734;2023-07-29T10:36:47;1.98;;;1.40;;
51332;SDS011;37417;48.118;11.734;2023-07-29T10:39:37;2.22;;;1.60;;
51332;SDS011;37417;48.118;11.734;2023-07-29T10:42:25;3.50;;;1.42;;
51332;SDS011;37417;48.118;11.734;2023-07-29T10:45:17;1.70;;;1.33;;
51332;SDS011;37417;48.118;11.734;2023-07-29T10:54:11;2.53;;;1.40;;
51332;SDS011;37417;48.118;11.734;2023-07-29T10:56:59;1.48;;;1.17;;
51332;SDS011;37417;48.118;11.734;2023-07-29T10:59:54;2.47;;;1.27;;
51332;SDS011;37417;48.118;11.734;2023-07-29T11:02:41;1.73;;;1.20;;
51332;SDS011;37417;48.118;11.734;2023-07-29T11:05:27;2.08;;;1.08;;
51332;SDS011;37417;48.118;11.734;2023-07-29T11:08:28;2.28;;;1.20;;
51332;SDS011;37417;48.118;11.734;2023-07-29T11:11:15;1.27;;;1.13;;
51332;SDS011;37417;48.118;11.734;2023-07-29T11:14:00;1.33;;;1.23;;
51332;SDS011;37417;48.118;11.734;2023-07-29T11:16:47;2.58;;;1.55;;
51332;SDS011;37417;48.118;11.734;2023-07-29T11:19:33;1.17;;;0.82;;
51332;SDS011;37417;48.118;11.734;2023-07-29T11:22:21;1.40;;;1.10;;
51332;SDS011;37417;48.118;11.734;2023-07-29T11:25:07;2.40;;;1.33;;
51332;SDS011;37417;48.118;11.734;2023-07-29T11:27:55;1.33;;;1.13;;
51332;SDS011;37417;48.118;11.734;2023-07-29T11:30:42;2.60;;;1.42;;
51332;SDS011;37417;48.118;11.734;2023-07-29T11:33:27;1.45;;;1.13;;
51332;SDS011;37417;48.118;11.734;2023-07-29T11:36:17;1.75;;;0.85;;
51332;SDS011;37417;48.118;11.734;2023-07-29T11:39:09;2.95;;;0.70;;
51332;SDS011;37417;48.118;11.734;2023-07-29T11:41:55;1.10;;;0.80;;
51332;SDS011;37417;48.118;11.734;2023-07-29T11:44:41;1.85;;;1.00;;
51332;SDS011;37417;48.118;11.734;2023-07-29T11:47:27;3.88;;;0.88;;
51332;SDS011;37417;48.118;11.734;2023-07-29T11:50:13;1.40;;;0.85;;
51332;SDS011;37417;48.118;11.734;2023-07-29T11:53:08;0.90;;;0.60;;
51332;SDS011;37417;48.118;11.734;2023-07-29T11:55:56;1.45;;;0.73;;
51332;SDS011;37417;48.118;11.734;2023-07-29T11:58:43;1.05;;;0.70;;
51332;SDS011;37417;48.118;11.734;2023-07-29T12:01:33;0.88;;;0.70;;
51332;SDS011;37417;48.118;11.734;2023-07-29T12:04:22;1.05;;;0.88;;
51332;SDS011;37417;48.118;11.734;2023-07-29T12:07:09;1.85;;;0.80;;
51332;SDS011;37417;48.118;11.734;2023-07-29T12:09:55;1.55;;;1.02;;
51332;SDS011;37417;48.118;11.734;2023-07-29T12:12:45;1.95;;;1.00;;
51332;SDS011;37417;48.118;11.734;2023-07-29T12:15:32;0.95;;;0.93;;
51332;SDS011;37417;48.118;11.734;2023-07-29T12:18:17;0.63;;;0.63;;
51332;SDS011;37417;48.118;11.734;2023-07-29T12:21:03;1.10;;;0.88;;
51332;SDS011;37417;48.118;11.734;2023-07-29T12:23:50;3.00;;;0.82;;
51332;SDS011;37417;48.118;11.734;2023-07-29T12:26:40;0.82;;;0.75;;
51332;SDS011;37417;48.118;11.734;2023-07-29T12:32:15;1.20;;;0.68;;
51332;SDS011;37417;48.118;11.734;2023-07-29T12:35:00;1.02;;;0.70;;
51332;SDS011;37417;48.118;11.734;2023-07-29T12:38:00;1.45;;;0.98;;
51332;SDS011;37417;48.118;11.734;2023-07-29T12:40:50;1.58;;;1.17;;
51332;SDS011;37417;48.118;11.734;2023-07-29T12:43:36;1.20;;;0.88;;
51332;SDS011;37417;48.118;11.734;2023-07-29T12:46:32;1.35;;;1.23;;
51332;SDS011;37417;48.118;11.734;2023-07-29T12:49:18;0.95;;;0.93;;
51332;SDS011;37417;48.118;11.734;2023-07-29T12:52:05;1.67;;;1.05;;
51332;SDS011;37417;48.118;11.734;2023-07-29T12:54:55;1.27;;;1.17;;
51332;SDS011;37417;48.118;11.734;2023-07-29T12:57:44;1.27;;;1.10;;
51332;SDS011;37417;48.118;11.734;2023-07-29T13:00:30;2.55;;;1.10;;
51332;SDS011;37417;48.118;11.734;2023-07-29T13:03:16;1.83;;;1.63;;
51332;SDS011;37417;48.118;11.734;2023-07-29T13:06:04;1.80;;;1.38;;
51332;SDS011;37417;48.118;11.734;2023-07-29T13:08:50;6.93;;;2.10;;
51332;SDS011;37417;48.118;11.734;2023-07-29T13:11:36;2.97;;;1.30;;
51332;SDS011;37417;48.118;11.734;2023-07-29T13:14:22;3.72;;;1.17;;
51332;SDS011;37417;48.118;11.734;2023-07-29T13:17:07;1.08;;;0.88;;
51332;SDS011;37417;48.118;11.734;2023-07-29T13:19:53;1.38;;;0.80;;
51332;SDS011;37417;48.118;11.734;2023-07-29T13:22:39;1.58;;;0.80;;
51332;SDS011;37417;48.118;11.734;2023-07-29T13:25:25;2.65;;;1.40;;
51332;SDS011;37417;48.118;11.734;2023-07-29T13:28:11;2.90;;;1.08;;
51332;SDS011;37417;48.118;11.734;2023-07-29T13:30:58;3.35;;;1.45;;
51332;SDS011;37417;48.118;11.734;2023-07-29T13:33:55;5.57;;;1.80;;
51332;SDS011;37417;48.118;11.734;2023-07-29T13:36:40;2.15;;;1.48;;
51332;SDS011;37417;48.118;11.734;2023-07-29T13:39:26;3.03;;;1.70;;
51332;SDS011;37417;48.118;11.734;2023-07-29T13:42:12;2.97;;;1.77;;
51332;SDS011;37417;48.118;11.734;2023-07-29T13:44:58;3.63;;;1.95;;
51332;SDS011;37417;48.118;11.734;2023-07-29T13:47:44;2.65;;;1.95;;
51332;SDS011;37417;48.118;11.734;2023-07-29T13:50:30;3.30;;;1.92;;
51332;SDS011;37417;48.118;11.734;2023-07-29T13:53:16;2.70;;;2.15;;
51332;SDS011;37417;48.118;11.734;2023-07-29T13:56:02;3.80;;;1.90;;
51332;SDS011;37417;48.118;11.734;2023-07-29T13:58:49;1.98;;;1.45;;
51332;SDS011;37417;48.118;11.734;2023-07-29T14:01:35;2.13;;;1.75;;
51332;SDS011;37417;48.118;11.734;2023-07-29T14:04:21;4.10;;;1.80;;
51332;SDS011;37417;48.118;11.734;2023-07-29T14:07:07;3.38;;;1.90;;
51332;SDS011;37417;48.118;11.734;2023-07-29T14:09:53;2.88;;;1.83;;
51332;SDS011;37417;48.118;11.734;2023-07-29T14:12:39;4.43;;;1.58;;
51332;SDS011;37417;48.118;11.734;2023-07-29T14:15:25;2.90;;;1.60;;
51332;SDS011;37417;48.118;11.734;2023-07-29T14:18:11;6.43;;;2.20;;
51332;SDS011;37417;48.118;11.734;2023-07-29T14:20:57;2.17;;;1.98;;
51332;SDS011;37417;48.118;11.734;2023-07-29T14:23:44;1.67;;;1.52;;
51332;SDS011;37417;48.118;11.734;2023-07-29T14:26:29;3.47;;;2.03;;
51332;SDS011;37417;48.118;11.734;2023-07-29T14:29:16;2.42;;;1.98;;
51332;SDS011;37417;48.118;11.734;2023-07-29T14:32:02;3.72;;;2.17;;
51332;SDS011;37417;48.118;11.734;2023-07-29T14:34:48;4.43;;;2.53;;
51332;SDS011;37417;48.118;11.734;2023-07-29T14:37:34;4.75;;;2.00;;
51332;SDS011;37417;48.118;11.734;2023-07-29T14:40:20;2.78;;;1.95;;
51332;SDS011;37417;48.118;11.734;2023-07-29T14:43:06;4.28;;;1.83;;
51332;SDS011;37417;48.118;11.734;2023-07-29T14:45:55;1.85;;;1.45;;
51332;SDS011;37417;48.118;11.734;2023-07-29T14:48:42;5.38;;;1.67;;
51332;SDS011;37417;48.118;11.734;2023-07-29T14:51:32;4.40;;;2.13;;
51332;SDS011;37417;48.118;11.734;2023-07-29T14:54:18;3.30;;;1.67;;
51332;SDS011;37417;48.118;11.734;2023-07-29T14:57:05;4.13;;;2.13;;
51332;SDS011;37417;48.118;11.734;2023-07-29T14:59:51;3.60;;;2.15;;
51332;SDS011;37417;48.118;11.734;2023-07-29T15:02:40;2.83;;;2.10;;
51332;SDS011;37417;48.118;11.734;2023-07-29T15:05:26;2.83;;;1.83;;
51332;SDS011;37417;48.118;11.734;2023-07-29T15:08:12;2.75;;;2.10;;
51332;SDS011;37417;48.118;11.734;2023-07-29T15:10:58;1.92;;;1.73;;
51332;SDS011;37417;48.118;11.734;2023-07-29T15:13:43;4.82;;;1.98;;
51332;SDS011;37417;48.118;11.734;2023-07-29T15:16:29;3.55;;;1.90;;
51332;SDS011;37417;48.118;11.734;2023-07-29T15:19:15;2.58;;;1.88;;
51332;SDS011;37417;48.118;11.734;2023-07-29T15:22:01;3.20;;;2.75;;
51332;SDS011;37417;48.118;11.734;2023-07-29T15:24:48;2.83;;;1.48;;
51332;SDS011;37417;48.118;11.734;2023-07-29T15:27:34;5.88;;;2.30;;
51332;SDS011;37417;48.118;11.734;2023-07-29T15:30:20;10.30;;;5.80;;
51332;SDS011;37417;48.118;11.734;2023-07-29T15:33:06;5.47;;;3.13;;
51332;SDS011;37417;48.118;11.734;2023-07-29T15:35:52;3.10;;;2.55;;
51332;SDS011;37417;48.118;11.734;2023-07-29T15:38:38;2.97;;;1.95;;
51332;SDS011;37417;48.118;11.734;2023-07-29T15:41:24;2.70;;;2.00;;
51332;SDS011;37417;48.118;11.734;2023-07-29T15:44:10;2.38;;;1.92;;
51332;SDS011;37417;48.118;11.734;2023-07-29T15:46:56;4.75;;;1.58;;
51332;SDS011;37417;48.118;11.734;2023-07-29T15:49:42;1.40;;;1.30;;
51332;SDS011;37417;48.118;11.734;2023-07-29T15:52:28;2.33;;;1.42;;
51332;SDS011;37417;48.118;11.734;2023-07-29T15:55:14;3.63;;;1.90;;
51332;SDS011;37417;48.118;11.734;2023-07-29T15:58:00;2.60;;;1.60;;
51332;SDS011;37417;48.118;11.734;2023-07-29T16:00:46;1.73;;;1.55;;
51332;SDS011;37417;48.118;11.734;2023-07-29T16:03:33;2.78;;;1.70;;
51332;SDS011;37417;48.118;11.734;2023-07-29T16:06:19;3.10;;;2.65;;
51332;SDS011;37417;48.118;11.734;2023-07-29T16:09:07;3.38;;;1.88;;
51332;SDS011;37417;48.118;11.734;2023-07-29T16:11:53;3.60;;;2.40;;
51332;SDS011;37417;48.118;11.734;2023-07-29T16:14:39;6.88;;;3.10;;
51332;SDS011;37417;48.118;11.734;2023-07-29T16:17:30;2.17;;;1.75;;
51332;SDS011;37417;48.118;11.734;2023-07-29T16:20:19;3.83;;;1.75;;
51332;SDS011;37417;48.118;11.734;2023-07-29T16:23:05;3.83;;;2.33;;
51332;SDS011;37417;48.118;11.734;2023-07-29T16:25:54;2.13;;;1.60;;
51332;SDS011;37417;48.118;11.734;2023-07-29T16:28:40;4.43;;;2.35;;
51332;SDS011;37417;48.118;11.734;2023-07-29T16:31:29;7.75;;;5.05;;
51332;SDS011;37417;48.118;11.734;2023-07-29T16:34:18;6.13;;;3.58;;
51332;SDS011;37417;48.118;11.734;2023-07-29T16:37:07;1.60;;;1.27;;
51332;SDS011;37417;48.118;11.734;2023-07-29T16:39:53;3.08;;;1.80;;
51332;SDS011;37417;48.118;11.734;2023-07-29T16:42:39;1.35;;;1.25;;
51332;SDS011;37417;48.118;11.734;2023-07-29T16:45:25;2.72;;;1.63;;
51332;SDS011;37417;48.118;11.734;2023-07-29T16:48:18;3.25;;;1.52;;
51332;SDS011;37417;48.118;11.734;2023-07-29T16:51:04;1.65;;;1.55;;